Forecasts are only available for sites displaying the forecast symbol.

Some water levels are actually in metres AHD (Australian Height Datum), click individual sites for more details.

Scroll for more >

River gauges, storages, and weirs in the Murray–Darling Basin

Type Locationsort descending River Water level Flow Volume Release Water temp Salinity Rainfall
River Gauge Albury (Union Bridge) Murray 1.06 m 18/07/2019 18:00 Not measured Not measured Not measured 8.7°C 18/07/2019 18:00 56.4 μS/cm 18/07/2019 18:00 Not measured Full data
River Gauge Balranald Murrumbidgee 1.53 m 18/07/2019 17:45 1105 ML/Day 18/07/2019 17:45 Not measured Not measured 11.0°C 18/07/2019 17:45 216.0 μS/cm 18/07/2019 17:45 Not measured Full data
River Gauge Bandiana Kiewa 2.64 m 18/07/2019 17:45 3202 ML/Day 18/07/2019 17:45 Not measured Not measured 8.7°C 18/07/2019 17:45 34.9 μS/cm 18/07/2019 17:45 Not measured Full data
River Gauge Barmah Choke Murray 2.26 m 18/07/2019 17:45 6202 ML/Day 18/07/2019 17:45 Not measured Not measured Not measured Not measured Not measured Full data
River Gauge Biggara Murray 0.78 m 18/07/2019 18:00 1448 ML/Day 18/07/2019 18:00 Not measured Not measured 7.2°C 18/07/2019 18:00 41.6 μS/cm 18/07/2019 18:00 6.6 mm 18/07/2019 9:00 Full data
River Gauge Bringenbrong Bridge Murray 1.79 m 18/07/2019 18:00 5692 ML/Day 18/07/2019 18:00 Not measured Not measured Not measured Not measured Not measured Full data
River Gauge Burtundy Darling 0.5 m 18/07/2019 17:45 1 ML/Day 18/07/2019 17:45 Not measured Not measured 12.7°C 18/07/2019 17:45 7.3 μS/cm 9/04/2019 15:15 Not measured Full data
River Gauge Colemans Mitta 2.43 m 18/07/2019 18:15 6490 ML/Day 18/07/2019 18:15 Not measured Not measured 8.2°C 14/07/2019 16:45 44.9 μS/cm 14/07/2019 16:45 Not measured Full data
River Gauge Colignan Murray 2.48 m 18/07/2019 17:45 10881 ML/Day 18/07/2019 17:45 Not measured Not measured 11.8°C 18/07/2019 17:45 92.9 μS/cm 18/07/2019 17:45 Not measured Full data
River Gauge Corowa Murray 1.38 m 18/07/2019 18:00 4771 ML/Day 18/07/2019 18:00 Not measured Not measured 9.5°C 18/07/2019 18:00 69.4 μS/cm 18/07/2019 18:00 Not measured Full data
Storage Dartmouth Dam Mitta 461.1 m 18/07/2019 18:15 Not measured 2427 GL 18/07/2019 18:15 Not measured Not measured Not measured Not measured Full data
River Gauge Doctors Point Murray 1.96 m 18/07/2019 18:00 3835 ML/Day 18/07/2019 18:00 Not measured Not measured 8.8°C 18/07/2019 18:00 60.7 μS/cm 18/07/2019 18:00 Not measured Full data
River Gauge Echuca Wharf Murray 87.89 m 18/07/2019 15:45 Not measured Not measured Not measured Not measured Not measured Not measured Full data
River Gauge Edward Escape Wakool -0.07 m 7/07/2019 2:15 5 ML/Day 4/06/2019 19:15 Not measured Not measured 9.5°C 18/07/2019 17:45 21.3 μS/cm 18/07/2019 17:45 Not measured Full data
River Gauge Edward River Offtake Murray 2.42 m 18/07/2019 17:45 1589 ML/Day 18/07/2019 17:45 Not measured Not measured 10.5°C 18/07/2019 17:45 35.6 μS/cm 18/07/2019 17:45 Not measured Full data
Weirs Euston Weir Downstream Murray 43.82 m 18/07/2019 17:45 11315 ML/Day 18/07/2019 17:45 Not measured Not measured 11.1°C 18/07/2019 17:45 102.1 μS/cm 18/07/2019 17:45 Not measured Full data
Weirs Euston Weir Upstream Murray 47.27 m 18/07/2019 8:45 Not measured 32 GL 18/07/2019 7:45 Not measured Not measured Not measured 0.0 mm 21/02/2019 9:00 Full data
River Gauge Flow to South Australia Murray Not measured Not measured Not measured 4313.7 ML/d18/07/2019 7:45 Not measured Not measured Not measured Full data
River Gauge Frenchman Creek Murray 27.1 m 18/07/2019 7:45 Not measured Not measured 5570.0 ML/d18/07/2019 7:45 Not measured Not measured Not measured Full data
River Gauge Gulpa Creek Offtake Murray 2.12 m 18/07/2019 17:45 203 ML/Day 18/07/2019 17:45 Not measured Not measured Not measured Not measured Not measured Full data
River Gauge Hinnomunjie Mitta 1.07 m 18/07/2019 17:45 1558 ML/Day 18/07/2019 17:45 Not measured Not measured 5.4°C 18/07/2019 17:45 47.8 μS/cm 18/07/2019 17:45 0.0 mm 18/07/2019 9:00 Full data
Storage Hume Dam Murray 177.72 m 18/07/2019 18:00 Not measured 882 GL 18/07/2019 18:00 600.0 ML/d18/07/2019 8:00 Not measured Not measured 1.6 mm 18/07/2019 9:00 Full data
River Gauge Jingellic Murray 2.16 m 18/07/2019 17:45 8535 ML/Day 18/07/2019 17:45 Not measured Not measured 9.2°C 18/07/2019 17:45 29.9 μS/cm 18/07/2019 17:45 2.4 mm 18/07/2019 9:00 Full data
River Gauge Kerang Loddon 0.44 m 18/07/2019 17:45 352 ML/Day 18/07/2019 17:45 Not measured Not measured 10.4°C 18/07/2019 17:45 270.4 μS/cm 18/07/2019 17:45 Not measured Full data
River Gauge Lake Albert Murray 0.74 m 18/07/2019 5:45 Not measured 269 GL 18/07/2019 5:45 Not measured Not measured Not measured Not measured Full data
River Gauge Lake Alexandrina Murray 0.66 m 18/07/2019 5:45 Not measured 1555 GL 18/07/2019 5:45 Not measured Not measured 830.7 μS/cm 18/07/2019 15:45 Not measured Full data
Storage Lake Victoria Murray 23.85 m 17/07/2019 7:45 Not measured 329 GL 17/07/2019 7:45 Not measured 11.2°C 17/07/2019 5:00 135.7 μS/cm 17/07/2019 7:45 Not measured Full data
Weirs Lock 1 Downstream Murray 0.62 m 18/07/2019 16:45 Not measured Not measured 3985.2 ML/d18/07/2019 7:45 Not measured Not measured Not measured Full data
Weirs Lock 1 Upstream Murray 3.23 m 18/07/2019 16:45 Not measured Not measured Not measured 12.5°C 18/07/2019 16:45 322.1 μS/cm 18/07/2019 16:45 Not measured Full data
Weirs Lock 2 Downstream Murray 3.35 m 18/07/2019 16:45 Not measured Not measured Not measured Not measured Not measured Not measured Full data
Weirs Lock 2 Upstream Murray 6.14 m 18/07/2019 16:45 Not measured Not measured Not measured 12.4°C 18/07/2019 16:45 318.4 μS/cm 18/07/2019 16:45 Not measured Full data
Weirs Lock 3 Downstream Murray 6.33 m 18/07/2019 16:45 Not measured Not measured Not measured Not measured Not measured Not measured Full data
Weirs Lock 3 Upstream Murray 9.83 m 18/07/2019 16:45 Not measured Not measured Not measured Not measured Not measured Not measured Full data
Weirs Lock 4 Downstream Murray 10.25 m 18/07/2019 16:45 Not measured Not measured Not measured Not measured Not measured Not measured Full data
Weirs Lock 4 Upstream Murray 13.24 m 18/07/2019 16:45 Not measured Not measured Not measured Not measured Not measured Not measured Full data
Weirs Lock 5 Downstream Murray 13.32 m 18/07/2019 16:45 Not measured Not measured Not measured Not measured Not measured Not measured Full data
Weirs Lock 5 Upstream Murray 16.34 m 18/07/2019 16:45 Not measured Not measured Not measured 11.8°C 18/07/2019 16:45 172.5 μS/cm 18/07/2019 16:45 Not measured Full data
Weirs Lock 6 Downstream Murray 16.32 m 18/07/2019 16:45 Not measured Not measured Not measured Not measured Not measured Not measured Full data
Weirs Lock 6 Upstream Murray 19.24 m 18/07/2019 16:45 Not measured Not measured Not measured 12.0°C 18/07/2019 16:45 147.6 μS/cm 18/07/2019 16:45 Not measured Full data
Weirs Lock 7 Downstream Murray 19.91 m 18/07/2019 16:45 Not measured Not measured Not measured Not measured Not measured Not measured Full data
Weirs Lock 7 Upstream Murray 22.04 m 18/07/2019 16:45 Not measured Not measured Not measured 12.3°C 18/07/2019 16:45 120.7 μS/cm 18/07/2019 16:45 Not measured Full data
Weirs Lock 8 Upstream Murray 24.23 m 18/07/2019 16:45 Not measured Not measured Not measured 11.9°C 18/07/2019 16:45 120.7 μS/cm 18/07/2019 16:45 Not measured Full data
Weirs Lock 9 Downstream Murray 24.24 m 18/07/2019 16:45 Not measured Not measured Not measured Not measured Not measured Not measured Full data
Weirs Lock 9 Upstream Murray 27.32 m 18/07/2019 16:45 Not measured Not measured Not measured 12.1°C 18/07/2019 16:45 112.4 μS/cm 18/07/2019 16:45 Not measured Full data
River Gauge McCoy Bridge Goulburn 4.76 m 18/07/2019 17:45 8158 ML/Day 18/07/2019 17:45 Not measured Not measured 9.9°C 18/07/2019 17:45 68.7 μS/cm 18/07/2019 17:45 Not measured Full data
Storage Menindee Lakes Darling Not measured Not measured 15 GL 18/07/2019 7:45 Not measured Not measured Not measured Not measured Full data
Weirs Mildura Weir downstream Murray 31.19 m 18/07/2019 17:45 Not measured Not measured Not measured 11.6°C 18/07/2019 17:45 108.9 μS/cm 18/07/2019 17:45 Not measured Full data
River Gauge Morgan Downstream Murray Not measured Not measured Not measured 2707.4 ML/d18/07/2019 16:45 Not measured 329.1 μS/cm 18/07/2019 15:45 Not measured Full data
River Gauge Mulwala Canal Murray Not measured Not measured Not measured 0.0 ML/d18/07/2019 8:45 Not measured Not measured Not measured Full data
River Gauge Mundoo Barrage Murray 0.68 m 18/07/2019 7:45 Not measured Not measured Not measured Not measured Not measured Not measured Full data
River Gauge Murray Bridge Murray 0.67 m 18/07/2019 16:45 Not measured Not measured Not measured 11.5°C 18/07/2019 16:45 292.9 μS/cm 18/07/2019 16:45 Not measured Full data
River Gauge Peechelba Ovens 129.51 m 18/07/2019 17:45 10456 ML/Day 18/07/2019 17:45 Not measured Not measured 9.4°C 18/07/2019 17:45 50.4 μS/cm 18/07/2019 17:45 Not measured Full data
River Gauge Pinegrove Murray 1.84 m 18/07/2019 18:00 1392 ML/Day 18/07/2019 18:00 Not measured Not measured 8.9°C 18/07/2019 18:00 136.4 μS/cm 18/07/2019 18:00 5.8 mm 18/07/2019 9:00 Full data
River Gauge Redcliffs Murray Not measured Not measured Not measured Not measured Not measured 109.2 μS/cm 18/07/2019 17:45 Not measured Full data
River Gauge Rochester Campaspe 1.69 m 18/07/2019 17:45 71 ML/Day 18/07/2019 17:45 Not measured Not measured 9.9°C 18/07/2019 17:45 554.0 μS/cm 18/07/2019 17:45 0.0 mm 18/07/2019 9:00 Full data
River Gauge Rufus River Murray 20.18 m 18/07/2019 7:45 Not measured Not measured 1448.0 ML/d18/07/2019 7:45 Not measured 135.4 μS/cm 18/07/2019 15:45 Not measured Full data
Weirs Steven's Weir Downstream Edward 2.02 m 18/07/2019 17:45 2028 ML/Day 18/07/2019 17:45 Not measured Not measured 10.5°C 18/07/2019 17:45 43.7 μS/cm 18/07/2019 17:45 Not measured Full data
Weirs Steven's Weir Upstream Edward 3.92 m 18/07/2019 17:45 Not measured Not measured Not measured Not measured Not measured Not measured Full data
River Gauge Stoney Crossing Murray 1.42 m 18/07/2019 17:45 488 ML/Day 18/07/2019 17:45 Not measured 478.4 ML/d18/07/2019 7:45 11.6°C 18/07/2019 17:45 207.1 μS/cm 18/07/2019 17:45 Not measured Full data
River Gauge Swan Hill Murray 2.2 m 18/07/2019 17:45 12600 ML/Day 18/07/2019 17:45 Not measured Not measured 10.4°C 18/07/2019 17:45 67.0 μS/cm 18/07/2019 17:45 Not measured Full data
River Gauge Tallandoon Mitta 3.08 m 18/07/2019 17:45 7675 ML/Day 18/07/2019 17:45 Not measured Not measured 9.8°C 18/07/2019 17:45 44.6 μS/cm 18/07/2019 17:45 Not measured Full data
River Gauge Tauwitchere Barrage Murray 0.71 m 18/07/2019 16:45 Not measured Not measured Not measured Not measured Not measured Not measured Full data
River Gauge Tocumwal Murray 2.41 m 18/07/2019 17:45 11638 ML/Day 18/07/2019 17:45 Not measured Not measured 9.8°C 18/07/2019 17:45 50.5 μS/cm 18/07/2019 17:45 Not measured Full data
River Gauge Torrumbarry Headworks Murray 84.1 m 5/07/2019 15:45 Not measured Not measured 594.6 ML/d18/07/2019 17:45 Not measured Not measured Not measured Full data
Weirs Torrumbarry Weir Downstream Murray 4.16 m 18/07/2019 17:45 14147 ML/Day 18/07/2019 17:45 Not measured Not measured 9.6°C 18/07/2019 17:45 63.0 μS/cm 18/07/2019 17:45 Not measured Full data
Weirs Torrumbarry Weir Upstream Murray 85.75 m 18/07/2019 17:30 Not measured 34 GL 18/07/2019 8:45 Not measured 9.4°C 18/07/2019 8:45 63.7 μS/cm 18/07/2019 14:45 0.0 mm 18/07/2019 9:00 Full data
River Gauge Wakool Canal Wakool -0.06 m 18/07/2019 17:45 Not measured Not measured 0.0 ML/d18/07/2019 8:45 Not measured Not measured Not measured Full data
River Gauge Wakool Junction Murray 3.84 m 18/07/2019 17:45 12053 ML/Day 18/07/2019 17:45 Not measured Not measured 10.5°C 18/07/2019 17:45 76.3 μS/cm 18/07/2019 17:45 Not measured Full data
River Gauge Weir 32 Upstream Darling 1.07 m 18/07/2019 17:45 3 ML/Day 18/07/2019 17:45 Not measured Not measured 13.7°C 18/07/2019 17:45 1319.0 μS/cm 18/07/2019 17:45 Not measured Full data
Weirs Wentworth Weir Murray 27.73 m 18/07/2019 17:45 Not measured Not measured 8506.0 ML/d18/07/2019 8:45 Not measured 104.0 μS/cm 18/07/2019 7:45 0.0 mm 31/01/2019 9:00 Full data
River Gauge Wilcania Darling 0.06 m 18/07/2019 17:45 14 ML/Day 18/07/2019 17:45 Not measured Not measured 10.9°C 18/07/2019 17:45 11.1 μS/cm 18/07/2019 17:45 Not measured Full data
River Gauge Yarrawonga Main Channel Murray 122.8 m 12/07/2019 19:45 Not measured Not measured 0.0 ML/d18/07/2019 8:45 Not measured Not measured Not measured Full data
Weirs Yarrawonga Weir Downstream Murray 2 m 18/07/2019 18:00 12635 ML/Day 18/07/2019 18:00 Not measured Not measured 9.8°C 18/07/2019 18:00 40.0 μS/cm 18/07/2019 18:00 Not measured Full data
Weirs Yarrawonga Weir Upstream Murray 124.82 m 18/07/2019 17:45 Not measured Not measured Not measured Not measured Not measured 1.8 mm 18/07/2019 9:00 Full data